Briefing drone pour Ouroux-sur-saone

Rechercher une autre localisation

Conditions de vol :


Nous sommes le : Mercredi 25 mai 2022
Il est 13:23 UTC (15:23 LT)

Lever de soleil : 03:29 UTC (05:29 LT)
Coucher de soleil : 19:45 UTC (21:45 LT)

Météo

L'essentiel des conditions de vol

VIGILANCE MÉTÉO FRANCE - Saône-et-Loire (71)
Pas de vigilances particulieres
METAR de LFLH
LFLH 251300Z AUTO 31009KT 280V340 CAVOK 22/09 Q1019

Date d'émission: 25/05/2022
Heure d'émission: 13:00 UTC
Vent: 310° (variable du 280° au 340°) pour 9 KT (17 km/h)
Visibilité horizontale: > 10 km
Plafond : Plafond et visibilité OK (CAVOK)
Température: 22 °C
Point de rosée: 9 °C
Humidité: 43%
Pression (QNH): 1019 hPa
Prévision 24h pour Chalon-sur-saone (7 km)
Vent : 330° pour 1 KT (5 km/h)
Temperature Maxi: 19 °C
Temperature Min: 19 °C
Humidité : 64%
Condition : Peu nuageux



Warning: count(): Parameter must be an array or an object that implements Countable in /homepages/6/d509196549/htdocs/droneoxygene/briefing.php on line 743
WEBCAM POUR OUROUX-SUR-SAONE

Réglementation

Voler en sécurité

CARTES AERONAUTIQUE 1/500.000
CARTES VAC (LFLH)
SUP AIP




Chargement des AIP...
NOTAM (OUROUX-SUR-SAONE + Terrain à proximité / FIR )




Chargement des NOTAMS...
CONTACT PREFECTURE 71


Avertissement : Les données mises à disposition sont indicatives. Oxygène Drone ne pourra être tenu responsable de dégâts causés aux biens et aux personnes.